createdAt,value
2022-12-14T00:02:11.747Z,5.28
2022-12-14T00:05:15.686Z,4.38
2022-12-14T00:08:17.985Z,5.72
2022-12-14T00:11:21.175Z,5.05
2022-12-14T00:14:58.681Z,5.00
2022-12-14T00:18:54.752Z,6.70
2022-12-14T00:22:29.704Z,5.60
2022-12-14T00:25:34.498Z,5.85
2022-12-14T00:28:36.912Z,5.05
2022-12-14T00:31:38.750Z,5.70
2022-12-14T00:34:40.434Z,6.50
2022-12-14T00:37:42.809Z,6.43
2022-12-14T00:40:44.618Z,5.93
2022-12-14T00:43:49.551Z,4.68
2022-12-14T00:46:51.657Z,3.42
2022-12-14T00:49:53.401Z,7.03
2022-12-14T00:52:55.058Z,4.07
2022-12-14T00:55:56.841Z,4.80
2022-12-14T00:58:58.570Z,4.57
2022-12-14T01:02:00.437Z,4.18
2022-12-14T01:05:02.227Z,4.57
2022-12-14T01:08:04.035Z,5.82
2022-12-14T01:11:07.605Z,4.93
2022-12-14T01:14:13.067Z,5.00
2022-12-14T01:17:14.749Z,4.28
2022-12-14T01:20:16.453Z,4.70
2022-12-14T01:23:18.122Z,4.28
2022-12-14T01:26:20.330Z,4.60
2022-12-14T01:29:22.038Z,4.65
2022-12-14T01:32:23.901Z,4.35
2022-12-14T01:35:25.609Z,5.45
2022-12-14T01:38:27.410Z,4.80
2022-12-14T01:41:51.416Z,3.20
2022-12-14T01:45:28.149Z,3.95
2022-12-14T01:48:29.789Z,3.35
2022-12-14T01:51:32.874Z,4.22
2022-12-14T01:54:40.685Z,4.57
2022-12-14T01:57:52.623Z,4.70
2022-12-14T02:00:57.045Z,4.32
2022-12-14T02:03:58.921Z,5.25
2022-12-14T02:07:01.465Z,5.38
2022-12-14T02:10:06.268Z,4.95
2022-12-14T02:13:16.968Z,4.97
2022-12-14T02:16:19.033Z,5.60
2022-12-14T02:19:21.003Z,6.10
2022-12-14T02:22:34.910Z,6.10
2022-12-14T02:26:00.399Z,5.28
2022-12-14T02:29:11.034Z,5.60
2022-12-14T02:32:21.365Z,4.38
2022-12-14T02:35:59.080Z,5.38
2022-12-14T02:39:17.740Z,5.10
2022-12-14T02:42:32.049Z,4.20
2022-12-14T02:50:43.638Z,3.80
2022-12-14T02:57:48.161Z,4.07
2022-12-14T03:00:50.838Z,3.15
2022-12-14T03:04:44.676Z,2.47
2022-12-14T03:08:16.718Z,2.85
2022-12-14T03:11:22.566Z,3.38
2022-12-14T03:14:30.733Z,2.85
2022-12-14T03:17:34.178Z,3.85
2022-12-14T03:20:38.217Z,3.28
2022-12-14T03:23:46.914Z,3.10
2022-12-14T03:27:14.028Z,4.43
2022-12-14T03:30:43.885Z,3.03
2022-12-14T03:33:42.915Z,3.40
2022-12-14T03:36:52.251Z,3.22
2022-12-14T03:39:53.941Z,4.70
2022-12-14T03:43:15.397Z,3.35
2022-12-14T03:46:41.819Z,3.55
2022-12-14T03:50:14.677Z,2.90
2022-12-14T03:55:05.503Z,3.28
2022-12-14T03:59:04.548Z,2.63
2022-12-14T04:02:43.887Z,3.67
2022-12-14T04:06:59.414Z,4.05
2022-12-14T04:11:13.643Z,2.03
2022-12-14T04:15:27.573Z,3.88
2022-12-14T04:23:02.063Z,2.95
2022-12-14T04:26:56.347Z,4.68
2022-12-14T04:30:13.716Z,5.75
2022-12-14T04:33:47.711Z,7.25
2022-12-14T04:36:56.280Z,6.15
2022-12-14T04:40:05.287Z,5.90
2022-12-14T04:43:12.900Z,5.25
2022-12-14T04:46:20.593Z,4.97
2022-12-14T04:49:49.163Z,4.38
2022-12-14T04:52:55.812Z,5.85
2022-12-14T04:56:10.344Z,4.93
2022-12-14T04:59:12.343Z,5.45
2022-12-14T05:02:33.150Z,5.53
2022-12-14T05:05:58.982Z,5.40
2022-12-14T05:09:07.911Z,4.72
2022-12-14T05:12:31.030Z,5.85
2022-12-14T05:15:42.190Z,6.85
2022-12-14T05:18:44.984Z,8.80
2022-12-14T05:21:49.623Z,4.78
2022-12-14T05:24:51.898Z,5.00
2022-12-14T05:27:53.722Z,5.38
2022-12-14T05:30:55.708Z,4.25
2022-12-14T05:33:57.570Z,2.92
2022-12-14T05:36:59.333Z,3.70
2022-12-14T05:40:01.152Z,2.78
2022-12-14T05:43:07.307Z,4.55
2022-12-14T05:46:11.849Z,3.13
2022-12-14T05:49:13.846Z,4.28
2022-12-14T05:52:15.882Z,4.47
2022-12-14T05:55:18.391Z,3.28
2022-12-14T05:58:20.229Z,4.80
2022-12-14T06:01:22.111Z,4.97
2022-12-14T06:04:24.042Z,4.13
2022-12-14T06:07:27.980Z,4.85
2022-12-14T06:10:30.090Z,4.07
2022-12-14T06:13:31.859Z,4.88
2022-12-14T06:16:34.292Z,4.78
2022-12-14T06:19:36.010Z,3.17
2022-12-14T06:22:42.774Z,3.03
2022-12-14T06:25:54.006Z,4.22
2022-12-14T06:28:57.741Z,3.33
2022-12-14T06:31:59.579Z,2.72
2022-12-14T06:35:01.377Z,3.88
2022-12-14T06:38:03.121Z,3.67
2022-12-14T06:41:08.512Z,4.40
2022-12-14T06:44:12.982Z,3.53
2022-12-14T06:47:14.825Z,3.95
2022-12-14T06:50:16.655Z,3.92
2022-12-14T06:53:18.395Z,5.00
2022-12-14T06:56:21.853Z,3.92
2022-12-14T06:59:23.691Z,5.03
2022-12-14T07:02:25.620Z,5.22
2022-12-14T07:05:27.606Z,4.03
2022-12-14T07:08:31.208Z,5.53
2022-12-14T07:11:33.399Z,4.45
2022-12-14T07:14:35.352Z,4.05
2022-12-14T07:17:37.825Z,9.15
2022-12-14T07:20:39.781Z,3.63
2022-12-14T07:23:43.369Z,5.90
2022-12-14T07:26:45.151Z,6.35
2022-12-14T07:29:46.929Z,5.05
2022-12-14T07:32:48.841Z,4.55
2022-12-14T07:35:51.014Z,3.53
2022-12-14T07:38:54.294Z,4.30
2022-12-14T07:44:58.160Z,4.03
2022-12-14T07:47:59.930Z,9.63
2022-12-14T07:51:13.192Z,6.03
2022-12-14T07:54:14.948Z,25.73
2022-12-14T07:57:19.679Z,5.47
2022-12-14T08:00:21.946Z,4.65
2022-12-14T08:03:23.866Z,7.35
2022-12-14T08:06:29.695Z,4.75
2022-12-14T08:09:31.615Z,4.93
2022-12-14T08:12:33.745Z,4.87
2022-12-14T08:15:38.685Z,4.50
2022-12-14T08:18:42.254Z,4.07
2022-12-14T08:21:45.753Z,4.47
2022-12-14T08:24:49.308Z,4.40
2022-12-14T08:27:51.429Z,5.75
2022-12-14T08:30:53.915Z,3.33
2022-12-14T08:33:57.673Z,4.77
2022-12-14T08:37:01.915Z,5.80
2022-12-14T08:40:04.051Z,4.85
2022-12-14T08:43:07.092Z,4.18
2022-12-14T08:46:10.550Z,3.53
2022-12-14T08:49:12.657Z,4.25
2022-12-14T08:52:14.440Z,4.68
2022-12-14T08:55:16.358Z,10.27
2022-12-14T08:58:18.040Z,6.78
2022-12-14T09:01:33.795Z,6.90
2022-12-14T09:04:36.448Z,4.78
2022-12-14T09:07:38.211Z,5.38
2022-12-14T09:10:39.974Z,4.72
2022-12-14T09:13:43.305Z,5.03
2022-12-14T09:19:46.825Z,13.05
2022-12-14T09:22:51.317Z,5.10
2022-12-14T09:26:04.175Z,7.68
2022-12-14T09:29:06.401Z,13.93
2022-12-14T09:32:08.161Z,7.38
2022-12-14T09:35:10.060Z,5.25
2022-12-14T09:38:11.856Z,4.80
2022-12-14T09:41:35.342Z,5.93
2022-12-14T09:45:02.779Z,9.93
2022-12-14T09:48:25.144Z,4.43
2022-12-14T09:51:33.934Z,8.63
2022-12-14T09:54:38.454Z,8.95
2022-12-14T09:57:42.293Z,9.63
2022-12-14T10:00:53.651Z,3.15
2022-12-14T10:04:12.852Z,4.50
2022-12-14T10:07:41.759Z,15.70
2022-12-14T10:11:00.260Z,6.03
2022-12-14T10:14:16.003Z,6.57
2022-12-14T10:17:38.259Z,5.50
2022-12-14T10:21:01.326Z,3.90
2022-12-14T10:24:06.222Z,4.63
2022-12-14T10:27:09.877Z,2.53
2022-12-14T10:30:18.164Z,3.97
2022-12-14T10:33:29.628Z,4.57
2022-12-14T10:36:42.727Z,3.33
2022-12-14T10:39:49.933Z,3.67
2022-12-14T10:43:05.749Z,3.85
2022-12-14T10:46:56.022Z,4.80
2022-12-14T10:50:03.085Z,4.40
2022-12-14T10:53:10.324Z,4.78
2022-12-14T10:56:22.138Z,4.57
2022-12-14T10:59:36.727Z,4.70
2022-12-14T11:02:50.170Z,3.88
2022-12-14T11:06:08.714Z,3.33
2022-12-14T11:09:21.549Z,3.65
2022-12-14T11:12:26.712Z,4.03
2022-12-14T11:15:38.163Z,4.43
2022-12-14T11:18:40.787Z,4.10
2022-12-14T11:21:42.917Z,3.67
2022-12-14T11:24:47.821Z,5.05
2022-12-14T11:27:50.005Z,4.38
2022-12-14T11:31:06.211Z,4.40
2022-12-14T11:34:25.387Z,3.97
2022-12-14T11:37:30.680Z,3.50
2022-12-14T11:40:36.861Z,3.70
2022-12-14T11:43:39.305Z,5.43
2022-12-14T11:47:12.762Z,7.63
2022-12-14T11:50:25.348Z,13.80
2022-12-14T11:53:27.274Z,4.32
2022-12-14T11:56:29.227Z,6.97
2022-12-14T11:59:45.705Z,4.22
2022-12-14T12:03:06.437Z,4.75
2022-12-14T12:06:18.936Z,4.55
2022-12-14T12:09:31.052Z,4.35
2022-12-14T12:12:33.052Z,5.25
2022-12-14T12:15:38.487Z,4.90
2022-12-14T12:18:52.751Z,4.75
2022-12-14T12:21:56.354Z,4.18
2022-12-14T12:28:31.592Z,4.35
2022-12-14T12:31:43.557Z,5.18
2022-12-14T12:35:11.301Z,4.63
2022-12-14T12:38:51.808Z,4.53
2022-12-14T12:42:22.995Z,4.70
2022-12-14T12:45:40.142Z,4.05
2022-12-14T12:48:48.252Z,4.43
2022-12-14T12:51:56.200Z,4.22
2022-12-14T12:55:25.162Z,4.55
2022-12-14T12:58:31.027Z,6.20
2022-12-14T13:01:43.468Z,5.05
2022-12-14T13:04:52.460Z,5.90
2022-12-14T13:08:04.132Z,4.30
2022-12-14T13:11:26.114Z,4.35
2022-12-14T13:14:40.116Z,4.70
2022-12-14T13:17:57.034Z,4.18
2022-12-14T13:21:03.252Z,4.10
2022-12-14T13:24:06.692Z,32.88
2022-12-14T13:30:54.499Z,4.57
2022-12-14T13:34:08.606Z,3.97
2022-12-14T13:38:07.396Z,4.20
2022-12-14T13:41:14.620Z,3.90
2022-12-14T13:44:43.978Z,3.65
2022-12-14T13:47:52.141Z,4.28
2022-12-14T13:51:02.185Z,6.57
2022-12-14T13:54:07.876Z,4.72
2022-12-14T13:57:14.592Z,3.63
2022-12-14T14:00:44.170Z,3.83
2022-12-14T14:03:52.324Z,3.72
2022-12-14T14:06:56.192Z,3.42
2022-12-14T14:10:06.407Z,3.67
2022-12-14T14:13:29.857Z,6.72
2022-12-14T14:16:37.906Z,4.15
2022-12-14T14:19:41.606Z,10.23
2022-12-14T14:23:18.394Z,17.88
2022-12-14T14:26:22.513Z,10.02
2022-12-14T14:29:29.987Z,4.43
2022-12-14T14:32:37.976Z,4.18
2022-12-14T14:35:40.189Z,5.68
2022-12-14T14:38:42.466Z,5.90
2022-12-14T14:41:44.883Z,4.22
2022-12-14T14:44:53.708Z,4.40
2022-12-14T14:48:02.323Z,4.45
2022-12-14T14:51:16.342Z,4.03
2022-12-14T14:54:37.941Z,4.45
2022-12-14T14:58:22.490Z,4.30
2022-12-14T15:01:28.205Z,4.63
2022-12-14T15:04:36.403Z,8.25
2022-12-14T15:07:38.224Z,3.63
2022-12-14T15:10:44.319Z,4.22
2022-12-14T15:13:53.177Z,3.70
2022-12-14T15:16:54.936Z,4.97
2022-12-14T15:20:02.092Z,6.75
2022-12-14T15:23:07.101Z,41.10
2022-12-14T15:29:25.597Z,9.77
2022-12-14T15:32:27.743Z,6.45
2022-12-14T15:35:42.434Z,8.65
2022-12-14T15:38:53.235Z,8.50
2022-12-14T15:42:13.558Z,9.18
2022-12-14T15:45:40.650Z,10.52
2022-12-14T15:48:42.999Z,9.65
2022-12-14T15:51:44.968Z,8.07
2022-12-14T15:54:46.976Z,11.35
2022-12-14T15:57:53.414Z,8.68
2022-12-14T16:00:59.427Z,10.30
2022-12-14T16:04:09.992Z,11.32
2022-12-14T16:07:37.595Z,11.60
2022-12-14T16:10:39.800Z,11.45
2022-12-14T16:13:44.064Z,12.45
2022-12-14T16:16:47.469Z,8.93
2022-12-14T16:20:01.694Z,10.75
2022-12-14T16:23:05.916Z,8.30
2022-12-14T16:26:13.807Z,8.20
2022-12-14T16:29:20.019Z,10.23
2022-12-14T16:32:22.660Z,10.30
2022-12-14T16:35:27.349Z,9.27
2022-12-14T16:38:30.042Z,9.35
2022-12-14T16:41:39.668Z,8.18
2022-12-14T16:44:41.508Z,7.93
2022-12-14T16:48:08.991Z,6.25
2022-12-14T16:51:33.011Z,5.35
2022-12-14T16:55:06.889Z,4.47
2022-12-14T16:58:17.131Z,4.80
2022-12-14T17:01:19.682Z,7.53
2022-12-14T17:04:22.602Z,16.65
2022-12-14T17:07:27.253Z,7.07
2022-12-14T17:10:30.643Z,6.45
2022-12-14T17:16:34.531Z,7.68
2022-12-14T17:19:38.821Z,9.55
2022-12-14T17:22:41.153Z,9.95
2022-12-14T17:25:47.755Z,10.45
2022-12-14T17:28:50.230Z,8.27
2022-12-14T17:32:01.261Z,6.93
2022-12-14T17:35:03.820Z,8.23
2022-12-14T17:38:15.125Z,8.85
2022-12-14T17:41:24.351Z,5.20
2022-12-14T17:44:27.548Z,6.05
2022-12-14T17:47:29.275Z,20.48
2022-12-14T17:50:32.346Z,33.05
2022-12-14T17:53:36.059Z,6.03
2022-12-14T17:56:37.866Z,5.63
2022-12-14T17:59:41.931Z,5.97
2022-12-14T18:02:47.778Z,6.38
2022-12-14T18:05:50.408Z,11.55
2022-12-14T18:08:52.219Z,11.03
2022-12-14T18:12:22.157Z,10.30
2022-12-14T18:15:28.862Z,7.75
2022-12-14T18:18:32.139Z,5.32
2022-12-14T18:21:36.928Z,7.13
2022-12-14T18:24:39.549Z,6.25
2022-12-14T18:27:41.436Z,6.70
2022-12-14T18:30:49.913Z,4.88
2022-12-14T18:33:51.939Z,7.70
2022-12-14T18:36:53.895Z,7.63
2022-12-14T18:39:56.611Z,8.32
2022-12-14T18:42:58.701Z,5.15
2022-12-14T18:46:01.657Z,6.78
2022-12-14T18:49:03.722Z,6.45
2022-12-14T18:52:05.430Z,4.72
2022-12-14T18:55:16.414Z,5.68
2022-12-14T18:58:24.231Z,9.75
2022-12-14T19:01:26.075Z,7.90
2022-12-14T19:04:27.883Z,8.48
2022-12-14T19:07:30.913Z,7.50
2022-12-14T19:10:33.115Z,10.32
2022-12-14T19:13:35.149Z,4.85
2022-12-14T19:16:38.637Z,5.82
2022-12-14T19:19:44.406Z,4.82
2022-12-14T19:22:47.945Z,5.80
2022-12-14T19:25:50.410Z,5.75
2022-12-14T19:28:52.201Z,7.55
2022-12-14T19:31:54.739Z,8.05
2022-12-14T19:34:57.413Z,5.18
2022-12-14T19:37:59.397Z,5.43
2022-12-14T19:41:04.552Z,5.65
2022-12-14T19:44:06.467Z,10.43
2022-12-14T19:47:09.673Z,9.70
2022-12-14T19:50:14.413Z,6.00
2022-12-14T19:53:21.462Z,5.10
2022-12-14T19:56:25.266Z,8.18
2022-12-14T19:59:28.553Z,8.25
2022-12-14T20:02:30.641Z,5.65
2022-12-14T20:05:32.513Z,8.35
2022-12-14T20:08:35.677Z,8.80
2022-12-14T20:11:43.754Z,21.00
2022-12-14T20:14:49.300Z,8.43
2022-12-14T20:17:51.512Z,9.13
2022-12-14T20:20:53.527Z,10.80
2022-12-14T20:23:58.718Z,6.63
2022-12-14T20:27:00.625Z,8.77
2022-12-14T20:30:02.421Z,7.20
2022-12-14T20:33:05.300Z,6.47
2022-12-14T20:36:07.637Z,8.70
2022-12-14T20:39:09.980Z,9.27
2022-12-14T20:42:11.819Z,10.55
2022-12-14T20:45:13.564Z,9.65
2022-12-14T20:48:15.525Z,9.00
2022-12-14T20:51:17.465Z,7.85
2022-12-14T20:54:20.180Z,7.78
2022-12-14T20:57:23.663Z,21.98
2022-12-14T21:00:26.417Z,26.75
2022-12-14T21:03:28.800Z,13.48
2022-12-14T21:06:32.982Z,7.07
2022-12-14T21:09:35.092Z,14.43
2022-12-14T21:12:37.126Z,10.00
2022-12-14T21:15:39.255Z,12.90
2022-12-14T21:18:41.157Z,10.85
2022-12-14T21:21:46.889Z,8.68
2022-12-14T21:25:03.090Z,11.50
2022-12-14T21:28:06.691Z,14.70
2022-12-14T21:31:08.837Z,10.15
2022-12-14T21:34:17.660Z,12.95
2022-12-14T21:37:20.345Z,12.18
2022-12-14T21:40:41.067Z,11.45
2022-12-14T21:43:42.911Z,10.48
2022-12-14T21:46:44.863Z,11.63
2022-12-14T21:49:47.355Z,12.10
2022-12-14T21:52:49.306Z,11.80
2022-12-14T21:55:51.671Z,8.70
2022-12-14T21:58:54.093Z,7.17
2022-12-14T22:01:58.626Z,4.63
2022-12-14T22:05:00.509Z,5.70
2022-12-14T22:08:02.269Z,8.75
2022-12-14T22:11:05.558Z,8.02
2022-12-14T22:14:07.294Z,10.57
2022-12-14T22:17:10.792Z,11.07
2022-12-14T22:20:13.059Z,7.88
2022-12-14T22:23:15.677Z,5.60
2022-12-14T22:26:18.512Z,7.43
2022-12-14T22:29:22.114Z,5.80
2022-12-14T22:32:23.999Z,4.07
2022-12-14T22:35:25.825Z,9.57
2022-12-14T22:38:30.795Z,13.75
2022-12-14T22:41:32.541Z,39.78
2022-12-14T22:44:34.346Z,12.30
2022-12-14T22:47:36.172Z,38.75
2022-12-14T22:50:37.901Z,89.85
2022-12-14T22:53:39.675Z,122.82
2022-12-14T22:56:48.287Z,175.70
2022-12-14T22:59:57.080Z,191.63
2022-12-14T23:02:58.983Z,235.27
2022-12-14T23:06:02.327Z,250.30
2022-12-14T23:09:23.466Z,270.33
2022-12-14T23:12:43.727Z,286.20
2022-12-14T23:16:03.896Z,287.58
2022-12-14T23:19:24.126Z,281.83
2022-12-14T23:22:44.533Z,107.32
2022-12-14T23:26:10.151Z,370.48
2022-12-14T23:29:30.974Z,236.52
2022-12-14T23:32:51.309Z,184.95
2022-12-14T23:36:11.509Z,86.47
2022-12-14T23:39:31.863Z,6.15
2022-12-14T23:42:52.468Z,7.85
2022-12-14T23:46:13.215Z,37.70
2022-12-14T23:49:33.353Z,5.60
2022-12-14T23:52:54.048Z,6.30
2022-12-14T23:56:14.431Z,7.28
2022-12-14T23:59:34.914Z,619.97
